Time;durP1;ratioP1;P1;durP2;ratioP2;P2;SDS_P1;SDS_P2;PMS_P1;PMS_P2;Temp;Humidity;BMP_temperature;BMP_pressure;BME280_temperature;BME280_humidity;BME280_pressure;Samples;Min_cycle;Max_cycle;Signal;HPM_P1;HPM_P2
2024/03/19 00:00:16;;;;;;;18.50;9.50;;;;;;;10.31;59.21;98978.25;4871351;29;20022;-91
2024/03/19 00:02:42;;;;;;;16.45;9.90;;;;;;;10.25;59.41;98967.75;4835917;29;20034;-91
2024/03/19 00:05:08;;;;;;;16.35;9.48;;;;;;;10.21;59.70;98970.19;4847719;29;20025;-92
2024/03/19 00:07:33;;;;;;;18.05;9.48;;;;;;;10.20;59.91;98973.16;4831930;29;20090;-92
2024/03/19 00:09:59;;;;;;;20.20;11.02;;;;;;;10.21;59.86;98989.03;4832454;29;20033;-92
2024/03/19 00:12:24;;;;;;;23.88;10.98;;;;;;;10.01;60.62;98971.06;4851214;29;20044;-92
2024/03/19 00:14:51;;;;;;;23.75;11.50;;;;;;;9.96;60.30;98954.16;4851323;29;20502;-92
2024/03/19 00:17:17;;;;;;;22.27;11.52;;;;;;;9.97;60.74;98975.41;4840228;29;20036;-92
2024/03/19 00:19:42;;;;;;;18.40;10.35;;;;;;;10.01;60.70;98981.03;4865935;29;20029;-92
2024/03/19 00:22:08;;;;;;;18.90;10.60;;;;;;;10.05;60.65;98987.47;4850347;29;20472;-92
2024/03/19 00:24:34;;;;;;;30.95;10.45;;;;;;;9.95;60.76;98964.09;4846371;29;20045;-92
2024/03/19 00:27:00;;;;;;;17.40;9.75;;;;;;;10.03;60.92;98963.53;4830198;29;20029;-91
2024/03/19 00:29:28;;;;;;;22.65;10.57;;;;;;;10.11;60.68;98964.88;4898327;29;20039;-93
2024/03/19 00:31:54;;;;;;;20.98;9.75;;;;;;;10.19;60.82;98972.38;4869207;29;20032;-93
2024/03/19 00:34:20;;;;;;;15.88;9.23;;;;;;;10.06;60.67;98941.47;4881571;29;20037;-92
2024/03/19 00:36:46;;;;;;;18.10;9.63;;;;;;;9.95;60.75;98931.03;4850190;29;20033;-93
2024/03/19 00:39:11;;;;;;;15.07;9.38;;;;;;;9.93;60.72;98930.50;4880512;29;20032;-93
2024/03/19 00:41:37;;;;;;;17.98;9.77;;;;;;;9.98;61.21;98942.06;4865270;29;20057;-92
2024/03/19 00:44:04;;;;;;;19.33;9.80;;;;;;;9.99;60.68;98940.16;4881818;29;20403;-93
2024/03/19 00:46:33;;;;;;;17.58;9.57;;;;;;;10.03;61.28;98951.97;4864806;29;20036;-93
2024/03/19 00:48:59;;;;;;;19.08;9.15;;;;;;;9.97;61.09;98943.13;4881305;29;20029;-92
2024/03/19 00:51:25;;;;;;;21.05;9.32;;;;;;;9.90;60.81;98929.19;4849810;29;20105;-92
2024/03/19 00:53:50;;;;;;;18.60;9.30;;;;;;;10.05;60.95;98936.38;4849954;29;20037;-92
2024/03/19 00:56:17;;;;;;;20.63;9.88;;;;;;;9.95;61.46;98923.75;4849522;29;20058;-92
2024/03/19 00:58:42;;;;;;;13.88;9.18;;;;;;;9.97;61.29;98934.25;4849393;29;20025;-92
2024/03/19 01:01:08;;;;;;;17.65;9.50;;;;;;;9.97;61.26;98926.19;4864902;29;20467;-92
2024/03/19 01:03:33;;;;;;;15.38;8.82;;;;;;;10.13;61.42;98957.31;4847422;29;20025;-91
2024/03/19 01:06:00;;;;;;;18.55;9.55;;;;;;;9.99;61.35;98930.19;4852666;29;20036;-92
2024/03/19 01:08:26;;;;;;;19.73;9.15;;;;;;;9.98;61.30;98923.22;4856134;29;20033;-92
2024/03/19 01:10:51;;;;;;;17.58;9.25;;;;;;;9.97;61.62;98940.44;4885093;29;20036;-92
2024/03/19 01:13:17;;;;;;;18.42;9.75;;;;;;;9.97;61.99;98934.25;4872021;29;20032;-91
2024/03/19 01:15:42;;;;;;;19.20;9.27;;;;;;;10.05;61.82;98947.13;4857119;29;20032;-91
2024/03/19 01:18:08;;;;;;;14.48;9.82;;;;;;;9.89;62.30;98931.03;4856530;29;20505;-92
2024/03/19 01:20:37;;;;;;;17.83;9.50;;;;;;;9.84;61.80;98920.31;4887795;29;20028;-92
2024/03/19 01:23:03;;;;;;;18.92;9.95;;;;;;;9.90;61.70;98932.66;4886882;29;20040;-92
2024/03/19 01:25:28;;;;;;;20.75;9.35;;;;;;;9.87;61.88;98930.50;4887154;29;20071;-92
2024/03/19 01:27:54;;;;;;;17.98;9.38;;;;;;;9.83;61.87;98936.72;4887983;29;20032;-90
2024/03/19 01:30:20;;;;;;;16.60;9.25;;;;;;;9.67;62.50;98920.66;4855732;29;20028;-91
2024/03/19 01:32:45;;;;;;;18.50;9.45;;;;;;;9.63;62.88;98911.50;4870172;29;20435;-91
2024/03/19 01:35:11;;;;;;;18.25;9.65;;;;;;;9.59;62.41;98909.66;4871460;29;20082;-91
2024/03/19 01:37:36;;;;;;;14.27;9.18;;;;;;;9.71;62.35;98926.25;4839745;29;20037;-93
2024/03/19 01:40:03;;;;;;;15.88;7.35;;;;;;;9.55;62.43;98905.91;4870116;29;20033;-93
2024/03/19 01:42:29;;;;;;;14.52;7.00;;;;;;;9.60;62.36;98908.56;4848627;29;20090;-92
2024/03/19 01:45:24;;;;;;;11.95;7.13;;;;;;;9.94;61.90;98932.94;4861539;29;20192;-91
2024/03/19 01:47:51;;;;;;;14.45;6.70;;;;;;;9.77;61.93;98910.91;4883963;29;20037;-92
2024/03/19 01:50:16;;;;;;;12.70;7.07;;;;;;;9.79;61.91;98920.31;4871590;29;20036;-92
2024/03/19 01:52:44;;;;;;;13.88;7.35;;;;;;;9.78;62.26;98920.63;4886115;29;20040;-92
2024/03/19 01:55:11;;;;;;;12.57;7.22;;;;;;;9.76;62.46;98915.50;4870852;29;20032;-91
2024/03/19 01:57:36;;;;;;;13.00;7.20;;;;;;;9.64;62.38;98904.25;4860794;29;20061;-92
2024/03/19 02:00:04;;;;;;;15.65;7.75;;;;;;;9.60;62.75;98908.56;4850500;29;20041;-92
2024/03/19 02:02:36;;;;;;;15.10;7.88;;;;;;;9.57;62.70;98907.22;4861391;29;20088;-90
2024/03/19 02:05:02;;;;;;;12.85;7.60;;;;;;;9.67;62.97;98922.50;4850159;29;20060;-91
2024/03/19 02:07:28;;;;;;;11.02;7.38;;;;;;;9.41;62.86;98893.03;4886191;29;20044;-91
2024/03/19 02:09:55;;;;;;;12.60;6.97;;;;;;;9.45;62.76;98901.34;4886229;29;20024;-91
2024/03/19 02:12:24;;;;;;;14.75;8.05;;;;;;;9.48;62.91;98892.72;4870835;29;20123;-92
2024/03/19 02:14:50;;;;;;;20.20;8.13;;;;;;;9.59;62.92;98912.34;4871724;29;20029;-91
2024/03/19 02:17:16;;;;;;;12.07;7.72;;;;;;;9.50;63.03;98895.94;4870509;29;20032;-92
2024/03/19 02:19:43;;;;;;;14.75;7.82;;;;;;;9.37;63.31;98891.94;4869873;29;20056;-92
2024/03/19 02:22:09;;;;;;;15.80;8.02;;;;;;;9.47;63.14;98905.38;4886936;29;20498;-92
2024/03/19 02:24:35;;;;;;;13.05;7.53;;;;;;;9.44;63.26;98903.25;4902521;29;20025;-91
2024/03/19 02:27:02;;;;;;;14.02;7.55;;;;;;;9.44;63.33;98911.31;4886598;29;20047;-92
2024/03/19 02:29:28;;;;;;;13.15;7.22;;;;;;;9.47;63.30;98899.19;4870455;29;20511;-92
2024/03/19 02:31:53;;;;;;;11.77;7.57;;;;;;;9.47;63.70;98908.06;4870462;29;20089;-92
2024/03/19 02:34:19;;;;;;;15.18;8.13;;;;;;;9.36;63.55;98900.28;4886793;29;20032;-91
2024/03/19 02:36:44;;;;;;;14.85;7.47;;;;;;;9.27;63.17;98897.34;4870193;29;20028;-92
2024/03/19 02:39:12;;;;;;;11.52;7.13;;;;;;;9.29;63.45;98903.25;4901308;29;20036;-91
2024/03/19 02:41:38;;;;;;;18.27;8.18;;;;;;;9.24;63.54;98898.69;4887140;29;20123;-92
2024/03/19 02:44:04;;;;;;;12.95;7.53;;;;;;;9.19;63.00;98905.94;4885286;29;20114;-91
2024/03/19 02:46:29;;;;;;;11.35;7.57;;;;;;;9.23;63.04;98902.44;4886112;29;20044;-92
2024/03/19 02:48:55;;;;;;;11.82;6.80;;;;;;;9.26;63.43;98903.81;4885608;29;20036;-91
2024/03/19 02:51:20;;;;;;;15.35;7.28;;;;;;;9.20;63.32;98904.88;4869647;29;20492;-93
2024/03/19 02:53:46;;;;;;;15.82;7.30;;;;;;;9.13;63.61;98898.97;4869548;29;20028;-92
2024/03/19 02:56:11;;;;;;;13.65;8.07;;;;;;;9.16;63.67;98896.56;4849576;29;20040;-91
2024/03/19 02:58:37;;;;;;;15.45;7.93;;;;;;;9.24;63.63;98911.34;4818832;29;20508;-92
2024/03/19 03:01:03;;;;;;;12.05;8.45;;;;;;;9.26;64.01;98906.50;4839619;29;20032;-92
2024/03/19 03:03:28;;;;;;;12.75;7.63;;;;;;;9.11;63.88;98893.91;4854898;29;20100;-93
2024/03/19 03:05:54;;;;;;;14.23;8.32;;;;;;;9.20;63.90;98910.25;4854536;29;20448;-91
2024/03/19 03:08:19;;;;;;;15.85;7.45;;;;;;;9.17;64.00;98902.72;4851056;29;20033;-91
2024/03/19 03:10:45;;;;;;;13.45;7.68;;;;;;;9.18;63.55;98898.97;4897764;29;20132;-91
2024/03/19 03:13:10;;;;;;;19.77;8.05;;;;;;;9.20;63.49;98904.88;4870117;29;20032;-92
2024/03/19 03:15:36;;;;;;;19.05;7.40;;;;;;;8.99;64.43;98904.09;4853923;29;20026;-92
2024/03/19 03:18:01;;;;;;;12.80;8.43;;;;;;;9.25;64.02;98939.78;4833780;29;20093;-91
2024/03/19 03:20:27;;;;;;;14.15;7.28;;;;;;;9.03;64.28;98903.28;4851380;29;20475;-91
2024/03/19 03:22:52;;;;;;;24.92;8.23;;;;;;;9.16;64.35;98922.63;4869753;29;20076;-91
2024/03/19 03:25:18;;;;;;;11.65;7.75;;;;;;;9.24;64.67;98935.50;4885816;29;20033;-92
2024/03/19 03:27:44;;;;;;;10.07;7.70;;;;;;;9.20;64.72;98932.56;4873147;29;20033;-90
2024/03/19 03:30:10;;;;;;;17.75;8.23;;;;;;;9.07;64.61;98908.94;4866678;29;20032;-90
2024/03/19 03:32:45;;;;;;;13.73;7.60;;;;;;;9.10;64.74;98906.50;4838694;29;20033;-91
2024/03/19 03:35:11;;;;;;;11.82;6.85;;;;;;;9.06;64.61;98899.25;4866304;29;20141;-92
2024/03/19 03:37:37;;;;;;;16.25;6.65;;;;;;;9.06;64.54;98896.56;4851276;29;20127;-92
2024/03/19 03:40:17;;;;;;;14.63;7.95;;;;;;;9.15;64.43;98908.41;4866379;29;20066;-91
2024/03/19 03:42:46;;;;;;;13.00;7.47;;;;;;;9.19;63.84;98900.59;4828157;29;20064;-92
2024/03/19 03:45:12;;;;;;;9.90;6.97;;;;;;;9.15;64.45;98888.75;4817010;29;20041;-92
2024/03/19 03:47:41;;;;;;;11.27;7.30;;;;;;;9.24;64.57;98887.97;4848602;29;20021;-92
2024/03/19 03:50:08;;;;;;;10.35;7.13;;;;;;;9.23;63.96;98877.47;4847724;29;20033;-91
2024/03/19 03:52:34;;;;;;;9.05;5.55;;;;;;;9.40;62.61;98895.97;4833109;29;20034;-93
2024/03/19 03:55:00;;;;;;;7.90;4.72;;;;;;;9.40;58.10;98890.59;4833518;29;20098;-92
2024/03/19 03:57:26;;;;;;;7.00;3.70;;;;;;;9.51;58.06;98879.56;4847028;29;20068;-92
2024/03/19 03:59:51;;;;;;;8.02;4.47;;;;;;;9.72;57.71;98898.31;4833000;29;20037;-91
2024/03/19 04:02:17;;;;;;;9.27;5.00;;;;;;;9.78;57.22;98893.72;4831903;29;20180;-92
2024/03/19 04:04:42;;;;;;;8.38;3.72;;;;;;;9.91;56.04;98896.59;4839947;29;20020;-93
2024/03/19 04:07:08;;;;;;;6.13;3.30;;;;;;;9.99;54.43;98892.56;4859129;29;20030;-93
2024/03/19 04:09:34;;;;;;;6.55;3.50;;;;;;;9.99;53.96;98879.09;4822477;29;20112;-92
2024/03/19 04:11:59;;;;;;;4.70;2.97;;;;;;;10.12;52.08;98894.63;4844076;29;20037;-92
2024/03/19 04:14:26;;;;;;;9.68;4.05;;;;;;;10.04;51.81;98873.72;4803780;29;20063;-92
2024/03/19 04:16:51;;;;;;;8.57;3.53;;;;;;;10.39;51.15;98909.56;4853230;29;20033;-92
2024/03/19 04:19:17;;;;;;;7.03;2.95;;;;;;;10.37;50.90;98916.31;4835548;29;20105;-92
2024/03/19 04:21:43;;;;;;;6.40;2.80;;;;;;;10.32;50.55;98896.44;4864305;29;20067;-92
2024/03/19 04:24:09;;;;;;;4.45;2.60;;;;;;;10.31;48.76;98900.22;4817336;29;20093;-93
2024/03/19 04:26:36;;;;;;;5.90;3.20;;;;;;;10.25;49.02;98909.38;4821722;29;20040;-93
2024/03/19 04:29:03;;;;;;;5.65;3.13;;;;;;;10.32;49.16;98904.50;4832756;29;20461;-93
2024/03/19 04:31:28;;;;;;;6.43;3.47;;;;;;;10.42;48.57;98910.94;4845827;29;20033;-91
2024/03/19 04:33:54;;;;;;;5.00;2.30;;;;;;;10.64;48.01;98932.03;4828670;29;20026;-92
2024/03/19 04:36:19;;;;;;;4.90;2.90;;;;;;;10.51;48.36;98922.69;4846476;29;20029;-92
2024/03/19 04:38:45;;;;;;;6.43;2.55;;;;;;;10.49;47.26;98909.50;4832593;29;20075;-93
2024/03/19 04:41:11;;;;;;;9.88;2.80;;;;;;;10.62;47.28;98940.38;4815194;29;20061;-92
2024/03/19 04:43:37;;;;;;;5.63;2.97;;;;;;;10.57;45.02;98931.56;4835736;29;20033;-92
2024/03/19 04:46:02;;;;;;;10.82;4.00;;;;;;;10.56;46.43;98933.41;4834588;29;20041;-91
2024/03/19 04:48:28;;;;;;;10.52;2.70;;;;;;;10.57;44.53;98929.66;4849529;29;20036;-91
2024/03/19 04:50:54;;;;;;;6.20;2.28;;;;;;;10.67;43.89;98943.06;4851783;29;20033;-91
2024/03/19 04:53:19;;;;;;;3.78;2.10;;;;;;;10.54;43.42;98929.41;4834801;29;20033;-92
2024/03/19 04:55:45;;;;;;;6.07;2.47;;;;;;;10.56;43.42;98932.63;4835923;29;20037;-91
2024/03/19 04:58:11;;;;;;;3.95;2.22;;;;;;;10.51;43.43;98925.41;4865982;29;20453;-91
2024/03/19 05:00:36;;;;;;;101.43;9.95;;;;;;;10.52;44.46;98948.53;4835102;29;20025;-91
2024/03/19 05:03:02;;;;;;;5.40;2.20;;;;;;;10.65;43.71;98957.91;4821920;29;20412;-91
2024/03/19 05:05:27;;;;;;;3.55;2.00;;;;;;;10.46;42.89;98949.66;4836360;29;20112;-92
2024/03/19 05:07:53;;;;;;;6.55;2.70;;;;;;;10.50;43.46;98939.94;4861522;29;20099;-91
2024/03/19 05:10:33;;;;;;;8.73;3.13;;;;;;;10.74;43.10;98952.72;4814521;29;20030;-95
2024/03/19 05:13:00;;;;;;;7.00;3.40;;;;;;;10.72;42.75;98947.59;4832242;29;20079;-95
2024/03/19 05:15:31;;;;;;;6.85;2.55;;;;;;;10.72;42.37;98948.41;4829854;29;20056;-95
2024/03/19 05:18:27;;;;;;;4.67;2.60;;;;;;;10.92;41.81;98955.53;4846053;29;20026;-93
2024/03/19 05:21:10;;;;;;;5.43;2.97;;;;;;;10.91;41.02;98969.28;4833693;29;20516;-94
2024/03/19 05:24:00;;;;;;;7.20;2.78;;;;;;;10.87;41.30;98962.84;4846289;29;20037;-94
2024/03/19 05:26:50;;;;;;;3.88;2.75;;;;;;;10.96;40.63;98968.44;4813988;29;20069;-94
2024/03/19 05:29:37;;;;;;;10.00;2.30;;;;;;;11.03;39.81;98969.72;4807689;29;20050;-93
2024/03/19 05:32:06;;;;;;;5.63;2.72;;;;;;;11.05;39.65;98972.16;4791811;29;20046;-93
2024/03/19 05:34:32;;;;;;;10.75;3.58;;;;;;;10.97;40.40;98970.84;4778206;29;20087;-95
2024/03/19 05:37:13;;;;;;;7.15;2.67;;;;;;;10.89;40.47;98972.28;4779072;29;20034;-94
2024/03/19 05:39:40;;;;;;;4.28;2.70;;;;;;;11.19;40.17;99000.06;4793457;29;20049;-95
2024/03/19 05:42:12;;;;;;;6.20;3.08;;;;;;;11.09;39.43;98984.78;4793075;29;20066;-95
2024/03/19 05:44:40;;;;;;;4.35;2.60;;;;;;;11.00;39.36;98977.56;4808712;29;20046;-96
2024/03/19 05:47:17;;;;;;;4.35;2.22;;;;;;;11.15;39.34;99001.72;4793814;29;20038;-94
2024/03/19 05:49:43;;;;;;;4.78;2.58;;;;;;;10.98;39.66;98982.44;4779274;29;20046;-92
2024/03/19 05:52:08;;;;;;;8.35;2.95;;;;;;;11.03;40.09;99002.06;4780177;29;20027;-94
2024/03/19 05:54:36;;;;;;;4.47;2.58;;;;;;;11.13;39.72;99004.69;4811948;29;20041;-93
2024/03/19 05:57:02;;;;;;;4.88;2.45;;;;;;;11.11;39.46;99012.25;4797586;29;20126;-94
2024/03/19 05:59:31;;;;;;;7.13;4.88;;;;;;;11.17;39.72;99017.59;4793915;29;20042;-94
2024/03/19 06:01:57;;;;;;;7.82;2.58;;;;;;;11.05;39.97;99020.66;4817709;29;20026;-95
2024/03/19 06:04:39;;;;;;;8.60;2.65;;;;;;;10.96;39.54;99001.59;4817550;29;20124;-94
2024/03/19 06:07:06;;;;;;;3.97;2.38;;;;;;;11.01;39.62;98998.03;4849943;29;20034;-92
2024/03/19 06:09:32;;;;;;;6.90;2.97;;;;;;;11.07;39.39;98997.72;4802027;29;20034;-94
2024/03/19 06:12:11;;;;;;;4.35;2.78;;;;;;;11.37;39.14;99033.63;4820044;29;20541;-94
2024/03/19 06:14:41;;;;;;;5.50;2.63;;;;;;;11.38;39.22;99029.03;4840171;29;20028;-94
2024/03/19 06:17:12;;;;;;;7.05;2.47;;;;;;;11.27;39.71;99012.94;4867480;29;20029;-93
2024/03/19 06:19:38;;;;;;;8.30;3.55;;;;;;;11.45;39.87;99026.81;4824396;29;20034;-94
2024/03/19 06:22:04;;;;;;;7.60;2.90;;;;;;;11.52;39.19;99041.56;4854398;29;20029;-95
2024/03/19 06:24:54;;;;;;;12.80;4.63;;;;;;;11.71;39.26;99054.38;4823203;29;20096;-91
2024/03/19 06:27:22;;;;;;;4.38;2.67;;;;;;;11.60;38.79;99036.66;4852444;29;20051;-93
2024/03/19 06:29:48;;;;;;;4.88;2.70;;;;;;;11.63;38.89;99052.28;4833723;29;20060;-92
2024/03/19 06:32:18;;;;;;;4.45;2.50;;;;;;;11.77;38.43;99049.72;4859431;29;20033;-92
2024/03/19 06:34:44;;;;;;;4.93;2.63;;;;;;;11.81;38.79;99054.28;4847384;29;20025;-94
2024/03/19 06:37:27;;;;;;;;;;;;;;;;;;;;;
2024/03/19 06:40:07;;;;;;;5.63;2.40;;;;;;;11.82;38.47;99045.06;4880318;29;20563;-94
2024/03/19 06:42:54;;;;;;;3.80;2.22;;;;;;;11.96;38.08;99079.53;4891328;29;20072;-96
2024/03/19 06:46:02;;;;;;;5.78;2.63;;;;;;;11.90;38.57;99081.47;4879870;29;20044;-95
2024/03/19 06:48:31;;;;;;;7.72;3.03;;;;;;;11.85;38.15;99074.19;4888906;29;20092;-96
2024/03/19 06:50:56;;;;;;;5.72;3.05;;;;;;;11.89;37.82;99094.16;4854094;29;20029;-96
2024/03/19 06:53:27;;;;;;;8.80;3.63;;;;;;;11.70;37.70;99077.00;4847544;29;20089;-95
2024/03/19 06:56:19;;;;;;;7.63;3.47;;;;;;;11.43;38.30;99077.50;4844557;29;20502;-96
2024/03/19 06:59:18;;;;;;;7.30;3.45;;;;;;;11.26;38.75;99083.28;4860071;29;20037;-96
2024/03/19 07:01:44;;;;;;;6.82;3.08;;;;;;;11.13;39.28;99088.22;4860284;29;20033;-94
2024/03/19 07:04:29;;;;;;;;;;;;;;;;;;;;;
2024/03/19 07:07:02;;;;;;;5.38;3.80;;;;;;;10.45;47.09;99091.50;4861891;29;20085;-96
2024/03/19 07:09:56;;;;;;;22.08;16.15;;;;;;;10.42;48.89;99088.56;4846786;29;20009;-96
2024/03/19 07:12:53;;;;;;;9.18;3.72;;;;;;;10.17;50.00;99098.28;4846293;29;20040;-95
2024/03/19 07:15:33;;;;;;;8.38;4.15;;;;;;;10.19;50.11;99106.06;4876108;29;20040;-96
2024/03/19 07:18:11;;;;;;;;;;;;;;;;;;;;;
2024/03/19 07:20:43;;;;;;;7.57;4.75;;;;;;;9.96;51.36;99131.66;4852760;29;20117;-95
2024/03/19 07:26:54;;;;;;;9.13;4.93;;;;;;;9.62;52.86;99132.19;4869536;29;20048;-96
2024/03/19 07:29:24;;;;;;;8.50;5.35;;;;;;;9.53;52.44;99102.38;4875859;29;20056;-95
2024/03/19 07:35:18;;;;;;;10.77;5.60;;;;;;;9.65;52.45;99120.91;4857694;29;20087;-96
2024/03/19 07:37:59;;;;;;;9.35;5.40;;;;;;;9.63;52.68;99125.72;4839801;29;20033;-96
2024/03/19 07:40:30;;;;;;;11.63;7.00;;;;;;;9.71;52.76;99133.25;4822761;29;20133;-95
2024/03/19 07:46:20;;;;;;;13.50;5.82;;;;;;;9.86;52.84;99157.50;4871852;29;20052;-95
2024/03/19 07:48:58;;;;;;;11.07;5.80;;;;;;;9.51;53.08;99139.44;4857692;29;20030;-96
2024/03/19 07:55:26;;;;;;;10.63;6.40;;;;;;;9.78;52.74;99159.91;4814541;29;20119;-94
2024/03/19 07:58:14;;;;;;;11.10;5.88;;;;;;;9.80;52.57;99174.69;4812133;29;20045;-96
2024/03/19 08:00:44;;;;;;;12.25;6.38;;;;;;;9.62;52.57;99154.50;4811092;29;20059;-96
2024/03/19 08:03:18;;;;;;;9.75;5.65;;;;;;;9.63;52.41;99152.63;4823808;29;20048;-96
2024/03/19 08:05:47;;;;;;;64.50;44.08;;;;;;;9.68;52.29;99171.44;4878215;29;20511;-94
2024/03/19 08:08:50;;;;;;;13.65;8.63;;;;;;;9.50;52.75;99146.72;4865220;29;20039;-95
2024/03/19 08:11:19;;;;;;;17.38;10.07;;;;;;;9.75;52.71;99155.06;4847168;29;20041;-95
2024/03/19 08:14:28;;;;;;;19.85;11.80;;;;;;;9.71;52.36;99154.78;4841517;29;20097;-96
2024/03/19 08:17:03;;;;;;;10.90;5.93;;;;;;;9.74;51.82;99151.56;4832600;29;20042;-96
2024/03/19 08:25:21;;;;;;;11.30;6.93;;;;;;;9.58;52.46;99174.94;4908347;29;20056;-96
2024/03/19 08:28:04;;;;;;;12.27;7.50;;;;;;;9.73;52.12;99195.63;4874183;29;20040;-96
2024/03/19 08:30:51;;;;;;;12.68;6.75;;;;;;;9.71;51.81;99195.94;4863669;29;20032;-96
2024/03/19 08:33:25;;;;;;;13.52;7.32;;;;;;;9.55;52.71;99206.94;4856474;29;20021;-96
2024/03/19 08:35:54;;;;;;;11.60;7.20;;;;;;;9.17;53.00;99177.53;4846810;29;20088;-96
2024/03/19 08:38:31;;;;;;;14.52;7.60;;;;;;;9.02;53.85;99167.53;4875966;29;20041;-96
2024/03/19 08:41:12;;;;;;;14.88;7.90;;;;;;;9.10;53.76;99188.50;4847926;29;20028;-96
2024/03/19 09:12:08;;;;;;;17.30;10.57;;;;;;;9.79;52.94;99199.94;4905954;29;20049;-96
2024/03/19 09:15:06;;;;;;;17.90;10.55;;;;;;;9.83;53.27;99209.09;4915281;29;20028;-96
2024/03/19 09:17:33;;;;;;;17.00;9.80;;;;;;;10.11;53.29;99232.00;4915058;29;20060;-96
2024/03/19 09:20:36;;;;;;;;;;;;;;;;;;;;;
2024/03/19 09:23:32;;;;;;;19.48;11.65;;;;;;;9.80;54.29;99206.97;4920561;29;20064;-95
2024/03/19 09:29:21;;;;;;;21.45;12.90;;;;;;;10.01;53.26;99217.75;4900525;29;20070;-96
2024/03/19 09:31:58;;;;;;;27.42;14.45;;;;;;;9.89;53.07;99226.84;4890477;29;20064;-96
2024/03/19 09:35:09;;;;;;;105.03;57.38;;;;;;;10.10;53.75;99254.56;4861264;29;20036;-92
2024/03/19 09:41:16;;;;;;;20.70;12.57;;;;;;;9.88;53.89;99254.84;4868517;29;20513;-90
2024/03/19 09:43:48;;;;;;;22.40;12.25;;;;;;;9.62;55.17;99232.47;4823090;29;20053;-92
2024/03/19 09:46:28;;;;;;;19.13;12.65;;;;;;;9.70;54.97;99260.72;4811725;29;20072;-93
2024/03/19 09:48:54;;;;;;;23.27;12.98;;;;;;;9.38;55.24;99229.47;4811524;29;20117;-90
2024/03/19 09:51:40;;;;;;;;;;;;;;;;;;;;;
2024/03/19 09:54:15;;;;;;;19.73;12.73;;;;;;;9.53;55.01;99222.50;4789721;29;20039;-91
2024/03/19 09:56:47;;;;;;;24.55;13.35;;;;;;;9.53;55.36;99235.94;4852716;29;20125;-90
2024/03/19 09:59:16;;;;;;;22.15;13.85;;;;;;;9.53;55.76;99239.44;4869035;29;20106;-92
2024/03/19 10:01:46;;;;;;;25.58;14.98;;;;;;;9.59;55.68;99232.19;4865419;29;20044;-90
2024/03/19 10:04:19;;;;;;;27.35;13.95;;;;;;;9.58;55.50;99215.25;4860235;29;20089;-90
2024/03/19 10:06:45;;;;;;;19.88;13.00;;;;;;;9.80;55.29;99241.13;4870663;29;20033;-91
2024/03/19 10:09:15;;;;;;;21.48;12.45;;;;;;;9.78;54.39;99227.13;4852033;29;20077;-92
2024/03/19 10:11:54;;;;;;;21.77;11.90;;;;;;;9.72;54.39;99234.38;4860388;29;20409;-92
2024/03/19 10:14:24;;;;;;;27.08;13.23;;;;;;;9.58;54.68;99244.81;4861589;29;20064;-95
2024/03/19 10:16:51;;;;;;;24.25;12.57;;;;;;;9.35;55.55;99246.09;4885574;29;20033;-92
2024/03/19 10:19:19;;;;;;;19.33;12.23;;;;;;;9.28;55.97;99237.47;4867608;29;20482;-94
2024/03/19 10:21:46;;;;;;;37.30;20.65;;;;;;;9.48;55.99;99242.94;4881517;29;20083;-94
2024/03/19 10:24:23;;;;;;;25.90;13.70;;;;;;;9.32;55.62;99219.75;4897393;29;20071;-94
2024/03/19 10:26:52;;;;;;;21.73;12.88;;;;;;;9.45;55.93;99254.19;4890138;29;20505;-94
2024/03/19 10:29:20;;;;;;;22.75;13.95;;;;;;;9.23;55.92;99214.06;4880724;29;20036;-95
2024/03/19 10:31:55;;;;;;;22.42;12.20;;;;;;;9.26;55.97;99229.69;4913724;29;20124;-93
2024/03/19 10:34:29;;;;;;;20.67;12.75;;;;;;;9.49;56.19;99246.41;4895535;29;20041;-95
2024/03/19 10:37:37;;;;;;;23.45;12.98;;;;;;;9.25;55.41;99211.13;4908275;29;20048;-95
2024/03/19 10:40:53;;;;;;;21.85;12.75;;;;;;;9.64;54.47;99218.75;4814641;29;20102;-96
2024/03/19 10:43:22;;;;;;;21.23;12.25;;;;;;;9.82;53.84;99229.00;4833240;29;20031;-92
2024/03/19 10:45:50;;;;;;;25.23;13.18;;;;;;;10.01;54.16;99258.09;4866491;29;20041;-93
2024/03/19 10:48:17;;;;;;;24.60;13.60;;;;;;;10.09;54.15;99257.56;4836193;29;20026;-92
2024/03/19 10:51:17;;;;;;;23.73;13.05;;;;;;;9.93;53.57;99224.44;4855630;29;20046;-96
2024/03/19 10:53:47;;;;;;;24.65;13.93;;;;;;;10.12;54.30;99251.63;4835166;29;20045;-94
2024/03/19 10:56:29;;;;;;;25.77;12.77;;;;;;;9.97;53.59;99240.88;4865874;29;20049;-95
2024/03/19 10:59:15;;;;;;;22.08;12.85;;;;;;;9.89;53.70;99243.00;4849199;29;20037;-94
2024/03/19 11:05:15;;;;;;;20.25;11.18;;;;;;;9.92;55.98;99263.19;4850873;29;20093;-93
2024/03/19 11:10:33;;;;;;;22.05;11.98;;;;;;;9.84;56.63;99234.94;4876864;29;20055;-95
2024/03/19 11:13:07;;;;;;;23.00;12.95;;;;;;;10.11;56.45;99253.50;4913102;29;20108;-96
2024/03/19 11:16:04;;;;;;;;;;;;;;;;;;;;;
2024/03/19 11:18:58;;;;;;;24.23;11.60;;;;;;;10.36;55.98;99261.91;4912341;29;20084;-96
2024/03/19 11:25:20;;;;;;;17.48;10.73;;;;;;;10.47;55.02;99232.00;4841533;29;20410;-94
2024/03/19 11:28:27;;;;;;;19.73;11.52;;;;;;;10.27;55.86;99213.97;4801881;29;20031;-96
2024/03/19 11:45:35;;;;;;;66.25;34.97;;;;;;;10.50;54.98;99255.69;4887595;29;20269;-94
2024/03/19 11:48:21;;;;;;;20.50;11.32;;;;;;;10.64;54.02;99220.94;4882972;29;20049;-96
2024/03/19 11:50:58;;;;;;;18.80;11.05;;;;;;;10.83;53.64;99231.94;4825300;29;20048;-93
2024/03/19 11:53:27;;;;;;;21.35;11.02;;;;;;;10.74;53.03;99211.22;4821529;29;20029;-93
2024/03/19 11:59:38;;;;;;;25.60;15.25;;;;;;;11.09;52.80;99256.91;4792373;29;20060;-91
2024/03/19 12:03:12;;;;;;;19.15;10.70;;;;;;;10.54;53.44;99212.88;4802099;29;20030;-96
2024/03/19 12:05:51;;;;;;;17.63;10.57;;;;;;;10.63;53.46;99238.19;4809507;29;20387;-90
2024/03/19 12:08:18;;;;;;;18.38;10.60;;;;;;;10.79;53.34;99230.06;4800354;29;20099;-91
2024/03/19 12:10:44;;;;;;;18.30;11.40;;;;;;;10.92;52.65;99222.22;4838426;29;20096;-92
2024/03/19 12:13:14;;;;;;;18.92;11.23;;;;;;;11.01;51.67;99208.19;4834600;29;20392;-91
2024/03/19 12:15:40;;;;;;;18.13;10.98;;;;;;;11.18;51.14;99210.53;4833462;29;20049;-91
2024/03/19 12:18:06;;;;;;;19.70;10.75;;;;;;;11.33;50.29;99216.66;4819939;29;20047;-93
2024/03/19 12:20:36;;;;;;;22.42;13.73;;;;;;;11.23;49.92;99218.63;4819303;29;20046;-92
2024/03/19 12:23:04;;;;;;;18.65;10.43;;;;;;;11.18;49.82;99221.31;4819594;29;20052;-94
2024/03/19 12:25:31;;;;;;;16.65;10.48;;;;;;;11.18;50.93;99213.22;4824688;29;20483;-93
2024/03/19 12:27:58;;;;;;;19.02;11.27;;;;;;;11.38;50.63;99204.25;4845543;29;20033;-94
2024/03/19 12:30:32;;;;;;;19.33;11.15;;;;;;;11.60;50.06;99206.53;4833351;29;20112;-93
2024/03/19 12:35:38;;;;;;;20.55;10.73;;;;;;;11.23;49.32;99216.72;4853369;29;20102;-95
2024/03/19 12:42:15;;;;;;;17.85;10.68;;;;;;;11.27;51.90;99244.72;4777559;30;20172;-95
2024/03/19 12:44:46;;;;;;;17.60;10.65;;;;;;;10.89;51.92;99213.88;4779808;29;20043;-95
2024/03/19 12:47:19;;;;;;;16.23;9.53;;;;;;;10.95;51.66;99220.84;4812053;29;20155;-95
2024/03/19 12:49:45;;;;;;;30.23;16.95;;;;;;;10.74;52.39;99208.53;4828047;29;20038;-91
2024/03/19 12:52:12;;;;;;;17.70;10.45;;;;;;;10.87;51.54;99208.78;4834489;29;20051;-89
2024/03/19 12:54:45;;;;;;;15.98;9.80;;;;;;;11.07;51.13;99215.97;4865694;29;20025;-91
2024/03/19 12:57:13;;;;;;;17.05;10.77;;;;;;;10.87;51.02;99219.56;4867080;29;20047;-93
2024/03/19 12:59:43;;;;;;;16.27;9.70;;;;;;;11.07;50.70;99209.78;4870746;29;20029;-96
2024/03/19 13:02:09;;;;;;;17.15;10.60;;;;;;;10.95;50.13;99202.00;4837425;29;20029;-93
2024/03/19 13:08:37;;;;;;;19.75;9.90;;;;;;;11.01;51.27;99227.03;4838623;29;20093;-90
2024/03/19 13:11:06;;;;;;;18.38;10.57;;;;;;;10.61;52.16;99215.31;4811581;29;20128;-95
2024/03/19 13:13:35;;;;;;;14.75;9.35;;;;;;;10.75;51.88;99208.28;4827968;29;20065;-94
2024/03/19 13:16:01;;;;;;;15.98;9.68;;;;;;;10.64;52.42;99238.97;4863531;29;20032;-93
2024/03/19 13:18:39;;;;;;;16.40;9.75;;;;;;;10.25;53.40;99199.16;4851938;29;20037;-93
2024/03/19 13:21:08;;;;;;;16.45;9.10;;;;;;;10.58;52.50;99231.97;4869678;29;20468;-94
2024/03/19 13:23:36;;;;;;;16.63;10.40;;;;;;;10.32;52.68;99197.84;4841332;29;20029;-94
2024/03/19 13:29:47;;;;;;;15.05;8.95;;;;;;;10.45;53.83;99218.00;4887657;29;20061;-96
2024/03/19 13:32:14;;;;;;;24.92;9.70;;;;;;;10.69;53.59;99242.47;4845818;29;20150;-95
2024/03/19 13:34:39;;;;;;;21.33;8.90;;;;;;;10.63;53.22;99215.84;4852540;29;20044;-95